ADDS TAF Data INFO
IDs: Format: Raw Decoded Include METARs

Data at: 1027 UTC 16 Aug 2018

KGUP 160953Z AUTO 00000KT 10SM BKN120 19/10 A3027 RMK AO2 SLP062 T01890100

KGUP 160535Z 1606/1706 VRB06KT P6SM VCSH SCT060 BKN100
  FM160900 VRB06KT P6SM BKN120
  FM162100 26008KT P6SM VCSH FEW070 SCT150
  FM170100 24007KT P6SM SCT100 SCT220